sensor_id;sensor_type;location;lat;lon;timestamp;P1;durP1;ratioP1;P2;durP2;ratioP2
44832;SDS011;30569;51.252;9.830;2023-03-31T00:01:17;10.52;;;2.17;;
44832;SDS011;30569;51.252;9.830;2023-03-31T00:03:43;8.38;;;2.75;;
44832;SDS011;30569;51.252;9.830;2023-03-31T00:06:12;8.85;;;1.90;;
44832;SDS011;30569;51.252;9.830;2023-03-31T00:08:42;7.78;;;1.58;;
44832;SDS011;30569;51.252;9.830;2023-03-31T00:11:08;5.65;;;1.60;;
44832;SDS011;30569;51.252;9.830;2023-03-31T00:13:34;8.43;;;1.95;;
44832;SDS011;30569;51.252;9.830;2023-03-31T00:16:04;8.18;;;1.80;;
44832;SDS011;30569;51.252;9.830;2023-03-31T00:18:32;5.43;;;1.77;;
44832;SDS011;30569;51.252;9.830;2023-03-31T00:21:04;8.85;;;2.55;;
44832;SDS011;30569;51.252;9.830;2023-03-31T00:23:38;12.07;;;2.88;;
44832;SDS011;30569;51.252;9.830;2023-03-31T00:26:04;12.70;;;2.58;;
44832;SDS011;30569;51.252;9.830;2023-03-31T00:28:30;7.65;;;1.85;;
44832;SDS011;30569;51.252;9.830;2023-03-31T00:30:59;6.80;;;2.03;;
44832;SDS011;30569;51.252;9.830;2023-03-31T00:33:27;10.93;;;2.00;;
44832;SDS011;30569;51.252;9.830;2023-03-31T00:35:53;7.65;;;1.60;;
44832;SDS011;30569;51.252;9.830;2023-03-31T00:38:19;7.10;;;1.75;;
44832;SDS011;30569;51.252;9.830;2023-03-31T00:40:45;7.43;;;1.90;;
44832;SDS011;30569;51.252;9.830;2023-03-31T00:43:33;7.63;;;2.38;;
44832;SDS011;30569;51.252;9.830;2023-03-31T00:46:01;7.55;;;1.73;;
44832;SDS011;30569;51.252;9.830;2023-03-31T00:48:45;9.10;;;1.60;;
44832;SDS011;30569;51.252;9.830;2023-03-31T00:51:17;8.10;;;1.60;;
44832;SDS011;30569;51.252;9.830;2023-03-31T00:53:47;6.45;;;1.70;;
44832;SDS011;30569;51.252;9.830;2023-03-31T00:56:23;9.43;;;1.65;;
44832;SDS011;30569;51.252;9.830;2023-03-31T00:58:50;6.10;;;2.25;;
44832;SDS011;30569;51.252;9.830;2023-03-31T01:01:18;7.30;;;1.58;;
44832;SDS011;30569;51.252;9.830;2023-03-31T01:03:48;7.80;;;1.40;;
44832;SDS011;30569;51.252;9.830;2023-03-31T01:06:14;5.95;;;1.70;;
44832;SDS011;30569;51.252;9.830;2023-03-31T01:08:43;7.60;;;1.70;;
44832;SDS011;30569;51.252;9.830;2023-03-31T01:11:14;5.88;;;1.60;;
44832;SDS011;30569;51.252;9.830;2023-03-31T01:13:42;9.85;;;2.22;;
44832;SDS011;30569;51.252;9.830;2023-03-31T01:16:10;6.30;;;2.17;;
44832;SDS011;30569;51.252;9.830;2023-03-31T01:18:36;5.40;;;1.63;;
44832;SDS011;30569;51.252;9.830;2023-03-31T01:36:15;9.93;;;2.28;;
44832;SDS011;30569;51.252;9.830;2023-03-31T01:47:15;8.27;;;1.80;;
44832;SDS011;30569;51.252;9.830;2023-03-31T01:49:55;6.38;;;1.60;;
44832;SDS011;30569;51.252;9.830;2023-03-31T01:55:17;6.65;;;1.83;;
44832;SDS011;30569;51.252;9.830;2023-03-31T01:57:49;4.45;;;1.63;;
44832;SDS011;30569;51.252;9.830;2023-03-31T02:00:18;8.48;;;1.90;;
44832;SDS011;30569;51.252;9.830;2023-03-31T02:02:57;5.60;;;2.15;;
44832;SDS011;30569;51.252;9.830;2023-03-31T02:05:31;6.57;;;1.42;;
44832;SDS011;30569;51.252;9.830;2023-03-31T02:08:05;4.88;;;1.35;;
44832;SDS011;30569;51.252;9.830;2023-03-31T02:10:37;6.45;;;1.95;;
44832;SDS011;30569;51.252;9.830;2023-03-31T02:13:06;7.95;;;2.10;;
44832;SDS011;30569;51.252;9.830;2023-03-31T02:15:33;6.43;;;1.58;;
44832;SDS011;30569;51.252;9.830;2023-03-31T02:18:03;5.88;;;1.45;;
44832;SDS011;30569;51.252;9.830;2023-03-31T02:20:35;5.65;;;1.50;;
44832;SDS011;30569;51.252;9.830;2023-03-31T02:23:06;8.73;;;1.70;;
44832;SDS011;30569;51.252;9.830;2023-03-31T02:25:34;7.10;;;1.70;;
44832;SDS011;30569;51.252;9.830;2023-03-31T02:28:07;9.88;;;1.67;;
44832;SDS011;30569;51.252;9.830;2023-03-31T02:30:44;3.40;;;1.20;;
44832;SDS011;30569;51.252;9.830;2023-03-31T02:33:15;5.03;;;1.38;;
44832;SDS011;30569;51.252;9.830;2023-03-31T02:35:40;8.55;;;1.50;;
44832;SDS011;30569;51.252;9.830;2023-03-31T02:38:06;5.68;;;1.40;;
44832;SDS011;30569;51.252;9.830;2023-03-31T02:40:32;5.43;;;1.33;;
44832;SDS011;30569;51.252;9.830;2023-03-31T02:42:58;5.28;;;1.50;;
44832;SDS011;30569;51.252;9.830;2023-03-31T02:45:38;6.60;;;1.58;;
44832;SDS011;30569;51.252;9.830;2023-03-31T02:56:37;7.25;;;1.63;;
44832;SDS011;30569;51.252;9.830;2023-03-31T02:59:19;7.28;;;1.70;;
44832;SDS011;30569;51.252;9.830;2023-03-31T03:04:41;6.57;;;2.03;;
44832;SDS011;30569;51.252;9.830;2023-03-31T03:07:23;8.15;;;1.60;;
44832;SDS011;30569;51.252;9.830;2023-03-31T03:13:03;8.48;;;2.00;;
44832;SDS011;30569;51.252;9.830;2023-03-31T03:15:54;4.88;;;1.50;;
44832;SDS011;30569;51.252;9.830;2023-03-31T03:18:25;7.43;;;1.80;;
44832;SDS011;30569;51.252;9.830;2023-03-31T03:20:51;7.05;;;1.50;;
44832;SDS011;30569;51.252;9.830;2023-03-31T03:23:16;5.57;;;1.50;;
44832;SDS011;30569;51.252;9.830;2023-03-31T03:25:42;7.18;;;1.63;;
44832;SDS011;30569;51.252;9.830;2023-03-31T03:28:08;6.90;;;1.50;;
44832;SDS011;30569;51.252;9.830;2023-03-31T03:30:34;7.05;;;1.70;;
44832;SDS011;30569;51.252;9.830;2023-03-31T03:33:00;8.05;;;1.50;;
44832;SDS011;30569;51.252;9.830;2023-03-31T03:35:27;5.85;;;1.40;;
44832;SDS011;30569;51.252;9.830;2023-03-31T03:37:52;7.28;;;1.40;;
44832;SDS011;30569;51.252;9.830;2023-03-31T03:40:18;6.80;;;1.63;;
44832;SDS011;30569;51.252;9.830;2023-03-31T03:42:43;6.30;;;1.90;;
44832;SDS011;30569;51.252;9.830;2023-03-31T03:45:09;7.45;;;1.40;;
44832;SDS011;30569;51.252;9.830;2023-03-31T03:47:35;8.07;;;1.75;;
44832;SDS011;30569;51.252;9.830;2023-03-31T03:50:01;4.03;;;1.40;;
44832;SDS011;30569;51.252;9.830;2023-03-31T03:52:28;5.90;;;1.40;;
44832;SDS011;30569;51.252;9.830;2023-03-31T03:54:54;5.18;;;1.60;;
44832;SDS011;30569;51.252;9.830;2023-03-31T03:57:20;5.10;;;1.50;;
44832;SDS011;30569;51.252;9.830;2023-03-31T03:59:45;7.45;;;1.30;;
44832;SDS011;30569;51.252;9.830;2023-03-31T04:02:11;6.68;;;1.70;;
44832;SDS011;30569;51.252;9.830;2023-03-31T04:04:37;7.32;;;1.50;;
44832;SDS011;30569;51.252;9.830;2023-03-31T04:07:02;5.30;;;1.30;;
44832;SDS011;30569;51.252;9.830;2023-03-31T04:09:28;7.07;;;1.45;;
44832;SDS011;30569;51.252;9.830;2023-03-31T04:11:54;6.85;;;2.65;;
44832;SDS011;30569;51.252;9.830;2023-03-31T04:14:19;6.55;;;1.50;;
44832;SDS011;30569;51.252;9.830;2023-03-31T04:16:45;8.25;;;2.40;;
44832;SDS011;30569;51.252;9.830;2023-03-31T04:19:11;5.15;;;1.50;;
44832;SDS011;30569;51.252;9.830;2023-03-31T04:21:38;6.38;;;1.73;;
44832;SDS011;30569;51.252;9.830;2023-03-31T04:24:09;7.45;;;1.50;;
44832;SDS011;30569;51.252;9.830;2023-03-31T04:26:39;3.50;;;1.33;;
44832;SDS011;30569;51.252;9.830;2023-03-31T04:29:09;7.28;;;2.15;;
44832;SDS011;30569;51.252;9.830;2023-03-31T04:31:46;5.68;;;1.63;;
44832;SDS011;30569;51.252;9.830;2023-03-31T04:34:14;7.47;;;1.80;;
44832;SDS011;30569;51.252;9.830;2023-03-31T04:36:41;5.70;;;1.52;;
44832;SDS011;30569;51.252;9.830;2023-03-31T04:39:10;7.15;;;1.48;;
44832;SDS011;30569;51.252;9.830;2023-03-31T04:41:50;7.03;;;1.60;;
44832;SDS011;30569;51.252;9.830;2023-03-31T04:44:16;8.18;;;1.80;;
44832;SDS011;30569;51.252;9.830;2023-03-31T04:46:42;5.07;;;1.80;;
44832;SDS011;30569;51.252;9.830;2023-03-31T04:49:07;10.70;;;4.20;;
44832;SDS011;30569;51.252;9.830;2023-03-31T04:51:33;5.22;;;2.17;;
44832;SDS011;30569;51.252;9.830;2023-03-31T04:53:58;10.20;;;2.83;;
44832;SDS011;30569;51.252;9.830;2023-03-31T04:56:24;7.40;;;2.70;;
44832;SDS011;30569;51.252;9.830;2023-03-31T04:58:50;8.00;;;2.80;;
44832;SDS011;30569;51.252;9.830;2023-03-31T05:01:16;8.02;;;4.60;;
44832;SDS011;30569;51.252;9.830;2023-03-31T05:03:44;6.68;;;3.03;;
44832;SDS011;30569;51.252;9.830;2023-03-31T05:06:11;6.45;;;1.85;;
44832;SDS011;30569;51.252;9.830;2023-03-31T05:08:38;6.68;;;1.90;;
44832;SDS011;30569;51.252;9.830;2023-03-31T05:11:04;8.90;;;1.67;;
44832;SDS011;30569;51.252;9.830;2023-03-31T05:13:30;7.03;;;1.70;;
44832;SDS011;30569;51.252;9.830;2023-03-31T05:15:56;7.88;;;1.83;;
44832;SDS011;30569;51.252;9.830;2023-03-31T05:18:22;10.10;;;3.22;;
44832;SDS011;30569;51.252;9.830;2023-03-31T05:20:47;10.70;;;2.00;;
44832;SDS011;30569;51.252;9.830;2023-03-31T05:23:13;8.02;;;2.10;;
44832;SDS011;30569;51.252;9.830;2023-03-31T05:25:39;8.05;;;1.95;;
44832;SDS011;30569;51.252;9.830;2023-03-31T05:28:06;7.30;;;1.88;;
44832;SDS011;30569;51.252;9.830;2023-03-31T05:30:33;6.50;;;1.88;;
44832;SDS011;30569;51.252;9.830;2023-03-31T05:32:58;6.57;;;1.95;;
44832;SDS011;30569;51.252;9.830;2023-03-31T05:35:24;6.78;;;1.88;;
44832;SDS011;30569;51.252;9.830;2023-03-31T05:37:50;8.05;;;2.03;;
44832;SDS011;30569;51.252;9.830;2023-03-31T05:40:16;6.30;;;1.83;;
44832;SDS011;30569;51.252;9.830;2023-03-31T05:42:41;8.88;;;2.20;;
44832;SDS011;30569;51.252;9.830;2023-03-31T05:45:07;9.32;;;1.90;;
44832;SDS011;30569;51.252;9.830;2023-03-31T05:47:33;8.40;;;2.00;;
44832;SDS011;30569;51.252;9.830;2023-03-31T05:49:59;10.40;;;2.42;;
44832;SDS011;30569;51.252;9.830;2023-03-31T05:52:24;9.73;;;2.25;;
44832;SDS011;30569;51.252;9.830;2023-03-31T05:54:50;4.78;;;1.77;;
44832;SDS011;30569;51.252;9.830;2023-03-31T05:57:17;9.43;;;2.83;;
44832;SDS011;30569;51.252;9.830;2023-03-31T05:59:45;7.53;;;1.90;;
44832;SDS011;30569;51.252;9.830;2023-03-31T06:02:11;11.90;;;2.45;;
44832;SDS011;30569;51.252;9.830;2023-03-31T06:04:37;9.63;;;1.98;;
44832;SDS011;30569;51.252;9.830;2023-03-31T06:07:03;6.32;;;1.88;;
44832;SDS011;30569;51.252;9.830;2023-03-31T06:09:29;9.32;;;2.20;;
44832;SDS011;30569;51.252;9.830;2023-03-31T06:11:55;7.10;;;1.95;;
44832;SDS011;30569;51.252;9.830;2023-03-31T06:14:21;10.55;;;2.00;;
44832;SDS011;30569;51.252;9.830;2023-03-31T06:16:47;7.85;;;2.15;;
44832;SDS011;30569;51.252;9.830;2023-03-31T06:19:13;8.90;;;2.45;;
44832;SDS011;30569;51.252;9.830;2023-03-31T06:21:38;9.65;;;2.30;;
44832;SDS011;30569;51.252;9.830;2023-03-31T06:24:04;10.43;;;2.75;;
44832;SDS011;30569;51.252;9.830;2023-03-31T06:26:30;6.85;;;2.38;;
44832;SDS011;30569;51.252;9.830;2023-03-31T06:28:56;9.68;;;3.13;;
44832;SDS011;30569;51.252;9.830;2023-03-31T06:31:22;12.32;;;2.80;;
44832;SDS011;30569;51.252;9.830;2023-03-31T06:33:49;10.15;;;2.70;;
44832;SDS011;30569;51.252;9.830;2023-03-31T06:36:15;12.10;;;3.35;;
44832;SDS011;30569;51.252;9.830;2023-03-31T06:38:43;12.40;;;3.45;;
44832;SDS011;30569;51.252;9.830;2023-03-31T06:41:10;13.77;;;3.78;;
44832;SDS011;30569;51.252;9.830;2023-03-31T06:43:38;9.88;;;3.03;;
44832;SDS011;30569;51.252;9.830;2023-03-31T06:46:04;7.53;;;3.25;;
44832;SDS011;30569;51.252;9.830;2023-03-31T06:48:29;7.50;;;2.88;;
44832;SDS011;30569;51.252;9.830;2023-03-31T06:50:57;8.57;;;2.88;;
44832;SDS011;30569;51.252;9.830;2023-03-31T06:53:24;13.38;;;3.80;;
44832;SDS011;30569;51.252;9.830;2023-03-31T06:55:50;7.35;;;2.58;;
44832;SDS011;30569;51.252;9.830;2023-03-31T06:58:16;9.73;;;3.20;;
44832;SDS011;30569;51.252;9.830;2023-03-31T07:00:42;8.55;;;2.72;;
44832;SDS011;30569;51.252;9.830;2023-03-31T07:03:09;9.43;;;2.60;;
44832;SDS011;30569;51.252;9.830;2023-03-31T07:05:36;13.57;;;2.72;;
44832;SDS011;30569;51.252;9.830;2023-03-31T07:08:02;8.65;;;3.22;;
44832;SDS011;30569;51.252;9.830;2023-03-31T07:10:28;9.07;;;2.50;;
44832;SDS011;30569;51.252;9.830;2023-03-31T07:12:55;7.80;;;2.75;;
44832;SDS011;30569;51.252;9.830;2023-03-31T07:15:21;10.80;;;2.83;;
44832;SDS011;30569;51.252;9.830;2023-03-31T07:17:47;9.43;;;3.60;;
44832;SDS011;30569;51.252;9.830;2023-03-31T07:20:15;8.38;;;2.75;;
44832;SDS011;30569;51.252;9.830;2023-03-31T07:22:43;7.97;;;2.40;;
44832;SDS011;30569;51.252;9.830;2023-03-31T07:25:10;10.15;;;2.40;;
44832;SDS011;30569;51.252;9.830;2023-03-31T07:27:37;7.57;;;2.42;;
44832;SDS011;30569;51.252;9.830;2023-03-31T07:30:04;10.05;;;2.30;;
44832;SDS011;30569;51.252;9.830;2023-03-31T07:32:31;11.30;;;2.15;;
44832;SDS011;30569;51.252;9.830;2023-03-31T07:34:57;7.00;;;2.20;;
44832;SDS011;30569;51.252;9.830;2023-03-31T07:37:23;8.20;;;2.10;;
44832;SDS011;30569;51.252;9.830;2023-03-31T07:39:48;6.68;;;2.05;;
44832;SDS011;30569;51.252;9.830;2023-03-31T07:42:14;6.82;;;1.95;;
44832;SDS011;30569;51.252;9.830;2023-03-31T07:44:39;12.10;;;2.13;;
44832;SDS011;30569;51.252;9.830;2023-03-31T07:47:05;8.95;;;2.00;;
44832;SDS011;30569;51.252;9.830;2023-03-31T07:49:31;6.47;;;1.80;;
44832;SDS011;30569;51.252;9.830;2023-03-31T07:51:57;7.03;;;2.20;;
44832;SDS011;30569;51.252;9.830;2023-03-31T07:54:23;7.65;;;1.92;;
44832;SDS011;30569;51.252;9.830;2023-03-31T07:56:51;8.38;;;2.53;;
44832;SDS011;30569;51.252;9.830;2023-03-31T07:59:17;6.40;;;2.38;;
44832;SDS011;30569;51.252;9.830;2023-03-31T08:01:43;6.82;;;2.15;;
44832;SDS011;30569;51.252;9.830;2023-03-31T08:04:09;6.43;;;1.67;;
44832;SDS011;30569;51.252;9.830;2023-03-31T08:06:35;6.68;;;1.67;;
44832;SDS011;30569;51.252;9.830;2023-03-31T08:09:02;6.18;;;2.17;;
44832;SDS011;30569;51.252;9.830;2023-03-31T08:11:29;6.00;;;1.85;;
44832;SDS011;30569;51.252;9.830;2023-03-31T08:13:55;5.18;;;1.75;;
44832;SDS011;30569;51.252;9.830;2023-03-31T08:16:21;4.35;;;1.50;;
44832;SDS011;30569;51.252;9.830;2023-03-31T08:18:47;7.20;;;1.60;;
44832;SDS011;30569;51.252;9.830;2023-03-31T08:21:13;4.97;;;1.65;;
44832;SDS011;30569;51.252;9.830;2023-03-31T08:23:39;9.63;;;2.00;;
44832;SDS011;30569;51.252;9.830;2023-03-31T08:26:06;6.15;;;2.05;;
44832;SDS011;30569;51.252;9.830;2023-03-31T08:28:36;6.18;;;2.03;;
44832;SDS011;30569;51.252;9.830;2023-03-31T08:31:06;6.20;;;1.50;;
44832;SDS011;30569;51.252;9.830;2023-03-31T08:33:32;4.07;;;1.40;;
44832;SDS011;30569;51.252;9.830;2023-03-31T08:36:02;6.30;;;1.60;;
44832;SDS011;30569;51.252;9.830;2023-03-31T08:38:31;5.80;;;1.60;;
44832;SDS011;30569;51.252;9.830;2023-03-31T08:41:01;4.90;;;1.50;;
44832;SDS011;30569;51.252;9.830;2023-03-31T08:43:29;7.63;;;2.30;;
44832;SDS011;30569;51.252;9.830;2023-03-31T08:45:58;4.53;;;1.50;;
44832;SDS011;30569;51.252;9.830;2023-03-31T08:48:31;5.40;;;1.67;;
44832;SDS011;30569;51.252;9.830;2023-03-31T08:51:08;4.70;;;1.70;;
44832;SDS011;30569;51.252;9.830;2023-03-31T08:53:54;6.35;;;1.83;;
44832;SDS011;30569;51.252;9.830;2023-03-31T08:56:27;7.13;;;1.90;;
44832;SDS011;30569;51.252;9.830;2023-03-31T08:58:54;5.88;;;1.80;;
44832;SDS011;30569;51.252;9.830;2023-03-31T09:01:29;4.18;;;1.60;;
44832;SDS011;30569;51.252;9.830;2023-03-31T09:11:59;6.22;;;1.45;;
44832;SDS011;30569;51.252;9.830;2023-03-31T09:17:06;5.70;;;1.63;;
44832;SDS011;30569;51.252;9.830;2023-03-31T09:19:55;4.90;;;1.60;;
44832;SDS011;30569;51.252;9.830;2023-03-31T09:22:29;4.47;;;1.50;;
44832;SDS011;30569;51.252;9.830;2023-03-31T09:24:58;4.25;;;1.50;;
44832;SDS011;30569;51.252;9.830;2023-03-31T09:27:29;5.43;;;2.53;;
44832;SDS011;30569;51.252;9.830;2023-03-31T09:30:00;4.60;;;1.50;;
44832;SDS011;30569;51.252;9.830;2023-03-31T09:32:40;4.95;;;1.30;;
44832;SDS011;30569;51.252;9.830;2023-03-31T09:35:12;3.97;;;1.38;;
44832;SDS011;30569;51.252;9.830;2023-03-31T09:37:38;3.13;;;1.20;;
44832;SDS011;30569;51.252;9.830;2023-03-31T09:40:04;3.22;;;1.27;;
44832;SDS011;30569;51.252;9.830;2023-03-31T09:42:35;3.80;;;1.20;;
44832;SDS011;30569;51.252;9.830;2023-03-31T09:45:02;3.30;;;1.30;;
44832;SDS011;30569;51.252;9.830;2023-03-31T09:47:34;3.03;;;1.00;;
44832;SDS011;30569;51.252;9.830;2023-03-31T09:50:07;2.92;;;1.20;;
44832;SDS011;30569;51.252;9.830;2023-03-31T09:52:43;3.28;;;1.60;;
44832;SDS011;30569;51.252;9.830;2023-03-31T09:58:05;3.60;;;1.58;;
44832;SDS011;30569;51.252;9.830;2023-03-31T10:00:31;5.65;;;2.05;;
44832;SDS011;30569;51.252;9.830;2023-03-31T10:03:00;3.63;;;1.52;;
44832;SDS011;30569;51.252;9.830;2023-03-31T10:05:37;3.08;;;1.45;;
44832;SDS011;30569;51.252;9.830;2023-03-31T10:10:57;4.55;;;1.95;;
44832;SDS011;30569;51.252;9.830;2023-03-31T10:16:05;4.88;;;1.50;;
44832;SDS011;30569;51.252;9.830;2023-03-31T10:18:34;3.28;;;1.25;;
44832;SDS011;30569;51.252;9.830;2023-03-31T10:21:02;3.42;;;1.30;;
44832;SDS011;30569;51.252;9.830;2023-03-31T10:23:30;3.08;;;1.17;;
44832;SDS011;30569;51.252;9.830;2023-03-31T10:25:57;4.50;;;1.27;;
44832;SDS011;30569;51.252;9.830;2023-03-31T10:28:24;3.00;;;1.30;;
44832;SDS011;30569;51.252;9.830;2023-03-31T10:30:51;4.22;;;1.30;;
44832;SDS011;30569;51.252;9.830;2023-03-31T10:33:21;3.92;;;1.20;;
44832;SDS011;30569;51.252;9.830;2023-03-31T10:35:58;4.38;;;1.50;;
44832;SDS011;30569;51.252;9.830;2023-03-31T10:40:54;4.45;;;1.55;;
44832;SDS011;30569;51.252;9.830;2023-03-31T10:43:25;5.03;;;1.50;;
44832;SDS011;30569;51.252;9.830;2023-03-31T10:45:58;2.53;;;1.10;;
44832;SDS011;30569;51.252;9.830;2023-03-31T10:50:58;2.58;;;1.10;;
44832;SDS011;30569;51.252;9.830;2023-03-31T10:53:28;5.20;;;1.30;;
44832;SDS011;30569;51.252;9.830;2023-03-31T10:56:03;4.18;;;1.10;;
44832;SDS011;30569;51.252;9.830;2023-03-31T11:01:28;6.27;;;1.27;;
44832;SDS011;30569;51.252;9.830;2023-03-31T11:29:22;4.47;;;1.50;;
44832;SDS011;30569;51.252;9.830;2023-03-31T11:34:48;3.95;;;1.73;;
44832;SDS011;30569;51.252;9.830;2023-03-31T11:41:03;4.00;;;1.30;;
44832;SDS011;30569;51.252;9.830;2023-03-31T11:46:06;5.65;;;1.98;;
44832;SDS011;30569;51.252;9.830;2023-03-31T11:51:19;10.10;;;2.33;;
44832;SDS011;30569;51.252;9.830;2023-03-31T11:53:49;5.05;;;1.83;;
44832;SDS011;30569;51.252;9.830;2023-03-31T11:56:18;5.88;;;1.95;;
44832;SDS011;30569;51.252;9.830;2023-03-31T12:04:08;6.57;;;1.70;;
44832;SDS011;30569;51.252;9.830;2023-03-31T12:06:59;10.20;;;2.53;;
44832;SDS011;30569;51.252;9.830;2023-03-31T12:09:50;6.93;;;1.67;;
44832;SDS011;30569;51.252;9.830;2023-03-31T12:12:41;6.55;;;1.70;;
44832;SDS011;30569;51.252;9.830;2023-03-31T12:18:02;8.20;;;2.10;;
44832;SDS011;30569;51.252;9.830;2023-03-31T12:20:40;7.95;;;2.38;;
44832;SDS011;30569;51.252;9.830;2023-03-31T12:23:13;10.48;;;2.97;;
44832;SDS011;30569;51.252;9.830;2023-03-31T12:25:44;12.90;;;2.28;;
44832;SDS011;30569;51.252;9.830;2023-03-31T12:28:17;8.32;;;2.20;;
44832;SDS011;30569;51.252;9.830;2023-03-31T12:30:44;7.57;;;1.92;;
44832;SDS011;30569;51.252;9.830;2023-03-31T12:41:32;10.25;;;5.10;;
44832;SDS011;30569;51.252;9.830;2023-03-31T12:44:11;9.52;;;4.30;;
44832;SDS011;30569;51.252;9.830;2023-03-31T12:52:05;9.68;;;2.28;;
44832;SDS011;30569;51.252;9.830;2023-03-31T12:57:26;5.93;;;2.40;;
44832;SDS011;30569;51.252;9.830;2023-03-31T13:02:36;7.97;;;1.83;;
44832;SDS011;30569;51.252;9.830;2023-03-31T13:08:47;4.45;;;1.63;;
44832;SDS011;30569;51.252;9.830;2023-03-31T13:11:18;7.60;;;1.42;;
44832;SDS011;30569;51.252;9.830;2023-03-31T13:16:47;8.23;;;1.42;;
44832;SDS011;30569;51.252;9.830;2023-03-31T13:22:29;5.05;;;1.30;;
44832;SDS011;30569;51.252;9.830;2023-03-31T13:28:17;3.20;;;1.17;;
44832;SDS011;30569;51.252;9.830;2023-03-31T13:30:45;4.65;;;1.25;;
44832;SDS011;30569;51.252;9.830;2023-03-31T13:33:14;5.18;;;1.38;;
44832;SDS011;30569;51.252;9.830;2023-03-31T13:35:47;5.35;;;1.20;;
44832;SDS011;30569;51.252;9.830;2023-03-31T13:38:42;7.43;;;2.50;;
44832;SDS011;30569;51.252;9.830;2023-03-31T13:44:15;5.90;;;2.15;;
44832;SDS011;30569;51.252;9.830;2023-03-31T13:47:22;3.47;;;1.33;;
44832;SDS011;30569;51.252;9.830;2023-03-31T14:04:37;5.05;;;1.52;;
44832;SDS011;30569;51.252;9.830;2023-03-31T14:07:31;6.40;;;1.52;;
44832;SDS011;30569;51.252;9.830;2023-03-31T14:10:00;5.07;;;1.65;;
44832;SDS011;30569;51.252;9.830;2023-03-31T14:14:58;7.25;;;1.98;;
44832;SDS011;30569;51.252;9.830;2023-03-31T14:17:27;5.82;;;1.50;;
44832;SDS011;30569;51.252;9.830;2023-03-31T14:36:20;4.00;;;1.42;;
44832;SDS011;30569;51.252;9.830;2023-03-31T14:39:10;4.47;;;1.40;;
44832;SDS011;30569;51.252;9.830;2023-03-31T14:41:38;4.25;;;1.10;;
44832;SDS011;30569;51.252;9.830;2023-03-31T14:44:06;4.13;;;1.20;;
44832;SDS011;30569;51.252;9.830;2023-03-31T14:46:37;3.72;;;1.30;;
44832;SDS011;30569;51.252;9.830;2023-03-31T14:49:13;4.50;;;1.52;;
44832;SDS011;30569;51.252;9.830;2023-03-31T14:51:45;4.55;;;1.30;;
44832;SDS011;30569;51.252;9.830;2023-03-31T14:54:14;4.63;;;1.30;;
44832;SDS011;30569;51.252;9.830;2023-03-31T14:56:48;3.67;;;1.17;;
44832;SDS011;30569;51.252;9.830;2023-03-31T14:59:21;6.80;;;2.65;;
44832;SDS011;30569;51.252;9.830;2023-03-31T15:01:52;3.60;;;1.20;;
44832;SDS011;30569;51.252;9.830;2023-03-31T15:04:20;4.35;;;1.30;;
44832;SDS011;30569;51.252;9.830;2023-03-31T15:06:48;3.90;;;1.13;;
44832;SDS011;30569;51.252;9.830;2023-03-31T15:09:20;4.10;;;1.42;;
44832;SDS011;30569;51.252;9.830;2023-03-31T15:11:56;4.28;;;1.48;;
44832;SDS011;30569;51.252;9.830;2023-03-31T15:14:31;5.97;;;1.80;;
44832;SDS011;30569;51.252;9.830;2023-03-31T15:17:00;5.40;;;1.50;;
44832;SDS011;30569;51.252;9.830;2023-03-31T15:19:29;8.77;;;1.60;;
44832;SDS011;30569;51.252;9.830;2023-03-31T15:22:00;6.93;;;1.40;;
44832;SDS011;30569;51.252;9.830;2023-03-31T15:24:30;4.60;;;1.55;;
44832;SDS011;30569;51.252;9.830;2023-03-31T15:26:57;6.43;;;1.90;;
44832;SDS011;30569;51.252;9.830;2023-03-31T15:32:00;5.72;;;1.30;;
44832;SDS011;30569;51.252;9.830;2023-03-31T15:34:30;5.28;;;1.40;;
44832;SDS011;30569;51.252;9.830;2023-03-31T15:36:57;5.47;;;1.45;;
44832;SDS011;30569;51.252;9.830;2023-03-31T15:39:24;5.07;;;1.60;;
44832;SDS011;30569;51.252;9.830;2023-03-31T15:41:54;4.50;;;1.75;;
44832;SDS011;30569;51.252;9.830;2023-03-31T15:44:28;4.10;;;1.30;;
44832;SDS011;30569;51.252;9.830;2023-03-31T15:47:18;5.78;;;1.60;;
44832;SDS011;30569;51.252;9.830;2023-03-31T15:50:30;7.88;;;1.60;;
44832;SDS011;30569;51.252;9.830;2023-03-31T15:55:24;5.40;;;1.25;;
44832;SDS011;30569;51.252;9.830;2023-03-31T15:57:54;7.10;;;2.08;;
44832;SDS011;30569;51.252;9.830;2023-03-31T16:03:01;5.55;;;1.80;;
44832;SDS011;30569;51.252;9.830;2023-03-31T16:07:58;6.30;;;1.90;;
44832;SDS011;30569;51.252;9.830;2023-03-31T16:10:24;7.88;;;1.92;;
44832;SDS011;30569;51.252;9.830;2023-03-31T16:12:52;7.47;;;1.80;;
44832;SDS011;30569;51.252;9.830;2023-03-31T16:15:27;4.68;;;2.00;;
44832;SDS011;30569;51.252;9.830;2023-03-31T16:17:59;5.35;;;1.80;;
44832;SDS011;30569;51.252;9.830;2023-03-31T16:21:02;4.10;;;1.45;;
44832;SDS011;30569;51.252;9.830;2023-03-31T16:23:30;6.47;;;1.67;;
44832;SDS011;30569;51.252;9.830;2023-03-31T16:25:58;3.83;;;1.30;;
44832;SDS011;30569;51.252;9.830;2023-03-31T16:28:25;5.07;;;1.27;;
44832;SDS011;30569;51.252;9.830;2023-03-31T16:30:54;6.13;;;1.40;;
44832;SDS011;30569;51.252;9.830;2023-03-31T16:33:20;3.08;;;1.20;;
44832;SDS011;30569;51.252;9.830;2023-03-31T16:35:48;4.57;;;1.35;;
44832;SDS011;30569;51.252;9.830;2023-03-31T16:38:17;5.90;;;1.42;;
44832;SDS011;30569;51.252;9.830;2023-03-31T16:40:45;4.50;;;1.27;;
44832;SDS011;30569;51.252;9.830;2023-03-31T16:43:14;4.25;;;1.65;;
44832;SDS011;30569;51.252;9.830;2023-03-31T16:45:45;3.75;;;1.40;;
44832;SDS011;30569;51.252;9.830;2023-03-31T16:48:12;4.10;;;1.63;;
44832;SDS011;30569;51.252;9.830;2023-03-31T16:50:38;4.38;;;1.70;;
44832;SDS011;30569;51.252;9.830;2023-03-31T16:53:05;6.00;;;1.55;;
44832;SDS011;30569;51.252;9.830;2023-03-31T16:55:31;4.93;;;1.38;;
44832;SDS011;30569;51.252;9.830;2023-03-31T16:57:57;4.30;;;1.20;;
44832;SDS011;30569;51.252;9.830;2023-03-31T17:00:31;4.68;;;1.30;;
44832;SDS011;30569;51.252;9.830;2023-03-31T17:03:01;3.78;;;1.48;;
44832;SDS011;30569;51.252;9.830;2023-03-31T17:05:27;5.10;;;1.30;;
44832;SDS011;30569;51.252;9.830;2023-03-31T17:07:56;3.95;;;1.25;;
44832;SDS011;30569;51.252;9.830;2023-03-31T17:10:22;4.07;;;1.20;;
44832;SDS011;30569;51.252;9.830;2023-03-31T17:12:48;4.85;;;1.30;;
44832;SDS011;30569;51.252;9.830;2023-03-31T17:15:14;4.95;;;1.40;;
44832;SDS011;30569;51.252;9.830;2023-03-31T17:17:41;6.07;;;1.98;;
44832;SDS011;30569;51.252;9.830;2023-03-31T17:20:07;8.10;;;1.70;;
44832;SDS011;30569;51.252;9.830;2023-03-31T17:22:34;4.35;;;1.90;;
44832;SDS011;30569;51.252;9.830;2023-03-31T17:25:01;6.25;;;1.85;;
44832;SDS011;30569;51.252;9.830;2023-03-31T17:27:27;5.55;;;2.20;;
44832;SDS011;30569;51.252;9.830;2023-03-31T17:29:53;3.65;;;1.35;;
44832;SDS011;30569;51.252;9.830;2023-03-31T17:32:19;3.63;;;1.70;;
44832;SDS011;30569;51.252;9.830;2023-03-31T17:34:45;5.05;;;1.58;;
44832;SDS011;30569;51.252;9.830;2023-03-31T17:37:15;6.93;;;2.80;;
44832;SDS011;30569;51.252;9.830;2023-03-31T17:39:41;9.30;;;4.10;;
44832;SDS011;30569;51.252;9.830;2023-03-31T17:42:07;8.15;;;4.43;;
44832;SDS011;30569;51.252;9.830;2023-03-31T17:44:34;5.20;;;2.50;;
44832;SDS011;30569;51.252;9.830;2023-03-31T17:46:59;5.45;;;1.90;;
44832;SDS011;30569;51.252;9.830;2023-03-31T17:49:25;3.67;;;1.25;;
44832;SDS011;30569;51.252;9.830;2023-03-31T17:51:51;3.42;;;1.00;;
44832;SDS011;30569;51.252;9.830;2023-03-31T17:54:17;2.72;;;1.25;;
44832;SDS011;30569;51.252;9.830;2023-03-31T17:56:43;5.47;;;2.90;;
44832;SDS011;30569;51.252;9.830;2023-03-31T17:59:09;4.88;;;1.75;;
44832;SDS011;30569;51.252;9.830;2023-03-31T18:01:35;4.20;;;1.40;;
44832;SDS011;30569;51.252;9.830;2023-03-31T18:04:02;4.00;;;1.20;;
44832;SDS011;30569;51.252;9.830;2023-03-31T18:06:27;3.55;;;1.20;;
44832;SDS011;30569;51.252;9.830;2023-03-31T18:08:54;3.83;;;1.33;;
44832;SDS011;30569;51.252;9.830;2023-03-31T18:11:20;6.53;;;2.30;;